sensor_id;sensor_type;location;lat;lon;timestamp;temperature;humidity
63875;DHT22;51595;24.180;-110.296;2023-01-23T00:01:27;19.20;99.90
63875;DHT22;51595;24.180;-110.296;2023-01-23T00:03:54;19.10;99.90
63875;DHT22;51595;24.180;-110.296;2023-01-23T00:06:22;18.90;99.90
63875;DHT22;51595;24.180;-110.296;2023-01-23T00:08:48;18.90;99.90
63875;DHT22;51595;24.180;-110.296;2023-01-23T00:11:19;18.80;99.90
63875;DHT22;51595;24.180;-110.296;2023-01-23T00:13:45;18.80;99.90
63875;DHT22;51595;24.180;-110.296;2023-01-23T00:16:14;18.50;99.90
63875;DHT22;51595;24.180;-110.296;2023-01-23T00:18:41;18.50;99.90
63875;DHT22;51595;24.180;-110.296;2023-01-23T00:21:16;18.30;99.90
63875;DHT22;51595;24.180;-110.296;2023-01-23T00:23:48;18.20;99.90
63875;DHT22;51595;24.180;-110.296;2023-01-23T00:26:18;18.10;99.90
63875;DHT22;51595;24.180;-110.296;2023-01-23T00:28:45;18.20;99.90
63875;DHT22;51595;24.180;-110.296;2023-01-23T00:31:26;18.10;99.90
63875;DHT22;51595;24.180;-110.296;2023-01-23T00:33:55;18.00;99.90
63875;DHT22;51595;24.180;-110.296;2023-01-23T00:36:22;18.00;99.90
63875;DHT22;51595;24.180;-110.296;2023-01-23T00:38:49;18.00;99.90
63875;DHT22;51595;24.180;-110.296;2023-01-23T00:41:15;18.10;99.90
63875;DHT22;51595;24.180;-110.296;2023-01-23T00:43:42;18.00;99.90
63875;DHT22;51595;24.180;-110.296;2023-01-23T00:46:09;17.80;99.90
63875;DHT22;51595;24.180;-110.296;2023-01-23T00:48:36;17.80;99.90
63875;DHT22;51595;24.180;-110.296;2023-01-23T00:51:02;17.80;99.90
63875;DHT22;51595;24.180;-110.296;2023-01-23T00:53:29;17.80;99.90
63875;DHT22;51595;24.180;-110.296;2023-01-23T00:55:55;17.70;99.90
63875;DHT22;51595;24.180;-110.296;2023-01-23T00:58:22;17.70;99.90
63875;DHT22;51595;24.180;-110.296;2023-01-23T01:00:48;17.70;99.90
63875;DHT22;51595;24.180;-110.296;2023-01-23T01:03:15;17.60;99.90
63875;DHT22;51595;24.180;-110.296;2023-01-23T01:05:41;17.50;99.90
63875;DHT22;51595;24.180;-110.296;2023-01-23T01:08:08;17.50;99.90
63875;DHT22;51595;24.180;-110.296;2023-01-23T01:10:34;17.50;99.90
63875;DHT22;51595;24.180;-110.296;2023-01-23T01:13:02;17.50;99.90
63875;DHT22;51595;24.180;-110.296;2023-01-23T01:15:28;17.50;99.90
63875;DHT22;51595;24.180;-110.296;2023-01-23T01:17:56;17.40;99.90
63875;DHT22;51595;24.180;-110.296;2023-01-23T01:20:25;17.40;99.90
63875;DHT22;51595;24.180;-110.296;2023-01-23T01:22:56;17.40;99.90
63875;DHT22;51595;24.180;-110.296;2023-01-23T01:25:24;17.40;99.90
63875;DHT22;51595;24.180;-110.296;2023-01-23T01:27:50;17.40;99.90
63875;DHT22;51595;24.180;-110.296;2023-01-23T01:30:17;17.30;99.90
63875;DHT22;51595;24.180;-110.296;2023-01-23T01:32:44;17.20;99.90
63875;DHT22;51595;24.180;-110.296;2023-01-23T01:35:11;17.20;99.90
63875;DHT22;51595;24.180;-110.296;2023-01-23T01:37:39;17.20;99.90
63875;DHT22;51595;24.180;-110.296;2023-01-23T01:40:10;17.20;99.90
63875;DHT22;51595;24.180;-110.296;2023-01-23T01:42:39;17.40;99.90
63875;DHT22;51595;24.180;-110.296;2023-01-23T01:48:11;16.90;99.90
63875;DHT22;51595;24.180;-110.296;2023-01-23T01:50:38;16.80;99.90
63875;DHT22;51595;24.180;-110.296;2023-01-23T01:53:04;16.80;99.90
63875;DHT22;51595;24.180;-110.296;2023-01-23T01:55:31;16.70;99.90
63875;DHT22;51595;24.180;-110.296;2023-01-23T01:57:58;16.60;99.90
63875;DHT22;51595;24.180;-110.296;2023-01-23T02:00:25;16.50;99.90
63875;DHT22;51595;24.180;-110.296;2023-01-23T02:02:55;16.50;99.90
63875;DHT22;51595;24.180;-110.296;2023-01-23T02:05:45;16.50;99.90
63875;DHT22;51595;24.180;-110.296;2023-01-23T02:08:25;16.40;99.90
63875;DHT22;51595;24.180;-110.296;2023-01-23T02:10:52;16.40;99.90
63875;DHT22;51595;24.180;-110.296;2023-01-23T02:13:33;16.40;99.90
63875;DHT22;51595;24.180;-110.296;2023-01-23T02:16:21;16.40;99.90
63875;DHT22;51595;24.180;-110.296;2023-01-23T02:18:52;16.40;99.90
63875;DHT22;51595;24.180;-110.296;2023-01-23T02:21:22;16.40;99.90
63875;DHT22;51595;24.180;-110.296;2023-01-23T02:23:53;16.50;99.90
63875;DHT22;51595;24.180;-110.296;2023-01-23T02:26:26;16.60;99.90
63875;DHT22;51595;24.180;-110.296;2023-01-23T02:28:54;16.60;99.90
63875;DHT22;51595;24.180;-110.296;2023-01-23T02:31:21;16.40;99.90
63875;DHT22;51595;24.180;-110.296;2023-01-23T02:33:53;16.30;99.90
63875;DHT22;51595;24.180;-110.296;2023-01-23T02:36:24;16.30;99.90
63875;DHT22;51595;24.180;-110.296;2023-01-23T02:41:28;16.10;99.90
63875;DHT22;51595;24.180;-110.296;2023-01-23T02:43:58;16.10;99.90
63875;DHT22;51595;24.180;-110.296;2023-01-23T02:46:26;16.10;99.90
63875;DHT22;51595;24.180;-110.296;2023-01-23T02:48:53;16.10;99.90
63875;DHT22;51595;24.180;-110.296;2023-01-23T02:51:20;15.90;99.90
63875;DHT22;51595;24.180;-110.296;2023-01-23T02:53:47;15.90;99.90
63875;DHT22;51595;24.180;-110.296;2023-01-23T02:56:14;15.90;99.90
63875;DHT22;51595;24.180;-110.296;2023-01-23T02:58:41;15.90;99.90
63875;DHT22;51595;24.180;-110.296;2023-01-23T03:01:26;16.00;99.90
63875;DHT22;51595;24.180;-110.296;2023-01-23T03:03:53;16.00;99.90
63875;DHT22;51595;24.180;-110.296;2023-01-23T03:06:26;16.00;99.90
63875;DHT22;51595;24.180;-110.296;2023-01-23T03:08:53;15.90;99.90
63875;DHT22;51595;24.180;-110.296;2023-01-23T03:11:21;15.80;99.90
63875;DHT22;51595;24.180;-110.296;2023-01-23T03:13:48;15.90;99.90
63875;DHT22;51595;24.180;-110.296;2023-01-23T03:16:15;15.80;99.90
63875;DHT22;51595;24.180;-110.296;2023-01-23T03:18:41;15.80;99.90
63875;DHT22;51595;24.180;-110.296;2023-01-23T03:21:08;15.80;99.90
63875;DHT22;51595;24.180;-110.296;2023-01-23T03:23:38;15.80;99.90
63875;DHT22;51595;24.180;-110.296;2023-01-23T03:26:05;15.80;99.90
63875;DHT22;51595;24.180;-110.296;2023-01-23T03:28:31;15.60;99.90
63875;DHT22;51595;24.180;-110.296;2023-01-23T03:31:16;15.60;99.90
63875;DHT22;51595;24.180;-110.296;2023-01-23T03:33:43;15.60;99.90
63875;DHT22;51595;24.180;-110.296;2023-01-23T03:36:10;15.50;99.90
63875;DHT22;51595;24.180;-110.296;2023-01-23T03:38:37;15.70;99.90
63875;DHT22;51595;24.180;-110.296;2023-01-23T03:41:04;15.70;99.90
63875;DHT22;51595;24.180;-110.296;2023-01-23T03:43:56;15.80;99.90
63875;DHT22;51595;24.180;-110.296;2023-01-23T03:46:23;15.80;99.90
63875;DHT22;51595;24.180;-110.296;2023-01-23T03:48:50;15.90;99.90
63875;DHT22;51595;24.180;-110.296;2023-01-23T03:51:16;15.90;99.90
63875;DHT22;51595;24.180;-110.296;2023-01-23T03:53:43;15.80;99.90
63875;DHT22;51595;24.180;-110.296;2023-01-23T03:56:09;15.90;99.90
63875;DHT22;51595;24.180;-110.296;2023-01-23T03:58:36;15.90;99.90
63875;DHT22;51595;24.180;-110.296;2023-01-23T04:01:05;16.00;99.90
63875;DHT22;51595;24.180;-110.296;2023-01-23T04:03:32;16.10;99.90
63875;DHT22;51595;24.180;-110.296;2023-01-23T04:05:58;16.00;99.90
63875;DHT22;51595;24.180;-110.296;2023-01-23T04:08:25;16.00;99.90
63875;DHT22;51595;24.180;-110.296;2023-01-23T04:10:59;16.00;99.90
63875;DHT22;51595;24.180;-110.296;2023-01-23T04:13:25;16.00;99.90
63875;DHT22;51595;24.180;-110.296;2023-01-23T04:15:52;16.00;99.90
63875;DHT22;51595;24.180;-110.296;2023-01-23T04:18:18;16.00;99.90
63875;DHT22;51595;24.180;-110.296;2023-01-23T04:20:45;16.00;99.90
63875;DHT22;51595;24.180;-110.296;2023-01-23T04:23:11;15.90;99.90
63875;DHT22;51595;24.180;-110.296;2023-01-23T04:25:38;15.90;99.90
63875;DHT22;51595;24.180;-110.296;2023-01-23T04:28:04;15.90;99.90
63875;DHT22;51595;24.180;-110.296;2023-01-23T04:30:32;15.90;99.90
63875;DHT22;51595;24.180;-110.296;2023-01-23T04:32:59;15.90;99.90
63875;DHT22;51595;24.180;-110.296;2023-01-23T04:35:25;15.80;99.90
63875;DHT22;51595;24.180;-110.296;2023-01-23T04:37:52;15.80;99.90
63875;DHT22;51595;24.180;-110.296;2023-01-23T04:40:18;15.70;99.90
63875;DHT22;51595;24.180;-110.296;2023-01-23T04:42:45;15.60;99.90
63875;DHT22;51595;24.180;-110.296;2023-01-23T04:45:11;15.60;99.90
63875;DHT22;51595;24.180;-110.296;2023-01-23T04:47:38;15.50;99.90
63875;DHT22;51595;24.180;-110.296;2023-01-23T04:50:05;15.50;99.90
63875;DHT22;51595;24.180;-110.296;2023-01-23T04:52:31;15.60;99.90
63875;DHT22;51595;24.180;-110.296;2023-01-23T04:54:58;15.50;99.90
63875;DHT22;51595;24.180;-110.296;2023-01-23T04:57:25;15.60;99.90
63875;DHT22;51595;24.180;-110.296;2023-01-23T04:59:53;15.40;99.90
63875;DHT22;51595;24.180;-110.296;2023-01-23T05:02:19;15.40;99.90
63875;DHT22;51595;24.180;-110.296;2023-01-23T05:04:46;15.40;99.90
63875;DHT22;51595;24.180;-110.296;2023-01-23T05:07:12;15.30;99.90
63875;DHT22;51595;24.180;-110.296;2023-01-23T05:09:39;15.30;99.90
63875;DHT22;51595;24.180;-110.296;2023-01-23T05:12:06;15.30;99.90
63875;DHT22;51595;24.180;-110.296;2023-01-23T05:14:33;15.30;99.90
63875;DHT22;51595;24.180;-110.296;2023-01-23T05:16:59;15.20;99.90
63875;DHT22;51595;24.180;-110.296;2023-01-23T05:19:26;15.10;99.90
63875;DHT22;51595;24.180;-110.296;2023-01-23T05:21:52;15.20;99.90
63875;DHT22;51595;24.180;-110.296;2023-01-23T05:24:18;15.10;99.90
63875;DHT22;51595;24.180;-110.296;2023-01-23T05:26:45;15.10;99.90
63875;DHT22;51595;24.180;-110.296;2023-01-23T05:29:11;15.10;99.90
63875;DHT22;51595;24.180;-110.296;2023-01-23T05:31:38;15.00;99.90
63875;DHT22;51595;24.180;-110.296;2023-01-23T05:34:04;15.10;99.90
63875;DHT22;51595;24.180;-110.296;2023-01-23T05:36:31;15.10;99.90
63875;DHT22;51595;24.180;-110.296;2023-01-23T05:38:57;15.20;99.90
63875;DHT22;51595;24.180;-110.296;2023-01-23T05:41:23;15.20;99.90
63875;DHT22;51595;24.180;-110.296;2023-01-23T05:43:50;15.10;99.90
63875;DHT22;51595;24.180;-110.296;2023-01-23T05:46:16;15.10;99.90
63875;DHT22;51595;24.180;-110.296;2023-01-23T05:48:43;15.00;99.90
63875;DHT22;51595;24.180;-110.296;2023-01-23T05:51:09;15.00;99.90
63875;DHT22;51595;24.180;-110.296;2023-01-23T05:53:36;15.00;99.90
63875;DHT22;51595;24.180;-110.296;2023-01-23T05:56:07;15.00;99.90
63875;DHT22;51595;24.180;-110.296;2023-01-23T05:58:34;14.90;99.90
63875;DHT22;51595;24.180;-110.296;2023-01-23T06:01:03;14.90;99.90
63875;DHT22;51595;24.180;-110.296;2023-01-23T06:03:30;14.90;99.90
63875;DHT22;51595;24.180;-110.296;2023-01-23T06:05:59;15.00;99.90
63875;DHT22;51595;24.180;-110.296;2023-01-23T06:08:25;15.10;99.90
63875;DHT22;51595;24.180;-110.296;2023-01-23T06:10:52;15.00;99.90
63875;DHT22;51595;24.180;-110.296;2023-01-23T06:13:18;15.30;99.90
63875;DHT22;51595;24.180;-110.296;2023-01-23T06:15:45;15.40;99.90
63875;DHT22;51595;24.180;-110.296;2023-01-23T06:18:11;15.40;99.90
63875;DHT22;51595;24.180;-110.296;2023-01-23T06:20:38;15.40;99.90
63875;DHT22;51595;24.180;-110.296;2023-01-23T06:23:04;15.40;99.90
63875;DHT22;51595;24.180;-110.296;2023-01-23T06:25:30;15.40;99.90
63875;DHT22;51595;24.180;-110.296;2023-01-23T06:27:57;15.40;99.90
63875;DHT22;51595;24.180;-110.296;2023-01-23T06:30:23;15.30;99.90
63875;DHT22;51595;24.180;-110.296;2023-01-23T06:32:50;15.30;99.90
63875;DHT22;51595;24.180;-110.296;2023-01-23T06:35:16;15.50;99.90
63875;DHT22;51595;24.180;-110.296;2023-01-23T06:37:43;16.00;99.90
63875;DHT22;51595;24.180;-110.296;2023-01-23T06:40:10;16.50;99.00
63875;DHT22;51595;24.180;-110.296;2023-01-23T06:42:39;16.70;97.70
63875;DHT22;51595;24.180;-110.296;2023-01-23T06:45:08;16.70;97.80
63875;DHT22;51595;24.180;-110.296;2023-01-23T06:47:35;16.90;95.30
63875;DHT22;51595;24.180;-110.296;2023-01-23T06:50:01;16.80;95.60
63875;DHT22;51595;24.180;-110.296;2023-01-23T06:52:29;16.90;93.40
63875;DHT22;51595;24.180;-110.296;2023-01-23T06:54:55;17.10;92.40
63875;DHT22;51595;24.180;-110.296;2023-01-23T06:57:22;17.10;92.70
63875;DHT22;51595;24.180;-110.296;2023-01-23T06:59:49;17.30;92.00
63875;DHT22;51595;24.180;-110.296;2023-01-23T07:02:15;17.30;91.80
63875;DHT22;51595;24.180;-110.296;2023-01-23T07:04:42;17.40;90.50
63875;DHT22;51595;24.180;-110.296;2023-01-23T07:07:08;17.40;90.70
63875;DHT22;51595;24.180;-110.296;2023-01-23T07:09:35;17.40;89.70
63875;DHT22;51595;24.180;-110.296;2023-01-23T07:12:01;17.50;88.60
63875;DHT22;51595;24.180;-110.296;2023-01-23T07:14:28;17.40;89.00
63875;DHT22;51595;24.180;-110.296;2023-01-23T07:16:54;17.50;87.40
63875;DHT22;51595;24.180;-110.296;2023-01-23T07:19:21;17.50;87.60
63875;DHT22;51595;24.180;-110.296;2023-01-23T07:21:48;17.60;86.90
63875;DHT22;51595;24.180;-110.296;2023-01-23T07:24:14;17.50;86.00
63875;DHT22;51595;24.180;-110.296;2023-01-23T07:26:41;17.60;85.90
63875;DHT22;51595;24.180;-110.296;2023-01-23T07:29:07;17.50;86.30
63875;DHT22;51595;24.180;-110.296;2023-01-23T07:31:35;17.60;85.90
63875;DHT22;51595;24.180;-110.296;2023-01-23T07:34:01;17.50;84.90
63875;DHT22;51595;24.180;-110.296;2023-01-23T07:36:28;17.50;85.20
63875;DHT22;51595;24.180;-110.296;2023-01-23T07:38:55;17.40;84.00
63875;DHT22;51595;24.180;-110.296;2023-01-23T07:41:23;17.50;83.40
63875;DHT22;51595;24.180;-110.296;2023-01-23T07:43:50;17.50;81.50
63875;DHT22;51595;24.180;-110.296;2023-01-23T07:46:17;17.50;80.50
63875;DHT22;51595;24.180;-110.296;2023-01-23T07:48:43;17.50;81.10
63875;DHT22;51595;24.180;-110.296;2023-01-23T07:51:10;17.40;80.00
63875;DHT22;51595;24.180;-110.296;2023-01-23T07:53:36;17.30;79.80
63875;DHT22;51595;24.180;-110.296;2023-01-23T07:56:04;17.30;79.40
63875;DHT22;51595;24.180;-110.296;2023-01-23T07:58:31;17.20;78.90
63875;DHT22;51595;24.180;-110.296;2023-01-23T08:00:58;17.10;79.20
63875;DHT22;51595;24.180;-110.296;2023-01-23T08:03:24;17.00;79.20
63875;DHT22;51595;24.180;-110.296;2023-01-23T08:05:53;17.00;78.90
63875;DHT22;51595;24.180;-110.296;2023-01-23T08:08:20;17.00;79.60
63875;DHT22;51595;24.180;-110.296;2023-01-23T08:10:46;17.10;79.70
63875;DHT22;51595;24.180;-110.296;2023-01-23T08:13:13;17.30;78.20
63875;DHT22;51595;24.180;-110.296;2023-01-23T08:15:39;17.40;78.10
63875;DHT22;51595;24.180;-110.296;2023-01-23T08:18:05;17.40;79.20
63875;DHT22;51595;24.180;-110.296;2023-01-23T08:20:32;17.50;78.70
63875;DHT22;51595;24.180;-110.296;2023-01-23T08:22:59;17.40;77.80
63875;DHT22;51595;24.180;-110.296;2023-01-23T08:25:27;17.50;78.60
63875;DHT22;51595;24.180;-110.296;2023-01-23T08:27:53;17.50;78.80
63875;DHT22;51595;24.180;-110.296;2023-01-23T08:30:20;17.40;78.30
63875;DHT22;51595;24.180;-110.296;2023-01-23T08:32:46;17.40;78.40
63875;DHT22;51595;24.180;-110.296;2023-01-23T08:35:12;17.40;79.10
63875;DHT22;51595;24.180;-110.296;2023-01-23T08:37:39;17.30;79.40
63875;DHT22;51595;24.180;-110.296;2023-01-23T08:40:07;17.20;79.80
63875;DHT22;51595;24.180;-110.296;2023-01-23T08:42:34;17.10;80.20
63875;DHT22;51595;24.180;-110.296;2023-01-23T08:45:00;17.20;80.50
63875;DHT22;51595;24.180;-110.296;2023-01-23T08:47:27;17.00;80.40
63875;DHT22;51595;24.180;-110.296;2023-01-23T08:49:53;17.00;81.10
63875;DHT22;51595;24.180;-110.296;2023-01-23T08:52:20;17.00;81.30
63875;DHT22;51595;24.180;-110.296;2023-01-23T08:54:46;16.90;81.90
63875;DHT22;51595;24.180;-110.296;2023-01-23T08:57:13;16.90;82.40
63875;DHT22;51595;24.180;-110.296;2023-01-23T08:59:39;16.90;83.10
63875;DHT22;51595;24.180;-110.296;2023-01-23T09:02:10;16.90;83.80
63875;DHT22;51595;24.180;-110.296;2023-01-23T09:04:36;16.60;84.30
63875;DHT22;51595;24.180;-110.296;2023-01-23T09:07:03;16.50;85.00
63875;DHT22;51595;24.180;-110.296;2023-01-23T09:09:29;16.40;86.50
63875;DHT22;51595;24.180;-110.296;2023-01-23T09:11:56;16.40;87.50
63875;DHT22;51595;24.180;-110.296;2023-01-23T09:14:22;16.30;88.60
63875;DHT22;51595;24.180;-110.296;2023-01-23T09:16:48;16.30;91.20
63875;DHT22;51595;24.180;-110.296;2023-01-23T09:19:15;16.30;91.90
63875;DHT22;51595;24.180;-110.296;2023-01-23T09:21:43;16.30;92.40
63875;DHT22;51595;24.180;-110.296;2023-01-23T09:24:10;16.30;93.40
63875;DHT22;51595;24.180;-110.296;2023-01-23T09:26:36;16.30;93.00
63875;DHT22;51595;24.180;-110.296;2023-01-23T09:29:03;16.30;92.60
63875;DHT22;51595;24.180;-110.296;2023-01-23T09:31:29;16.30;92.70
63875;DHT22;51595;24.180;-110.296;2023-01-23T09:33:55;16.30;92.60
63875;DHT22;51595;24.180;-110.296;2023-01-23T09:36:23;16.30;92.50
63875;DHT22;51595;24.180;-110.296;2023-01-23T09:38:50;16.20;92.40
63875;DHT22;51595;24.180;-110.296;2023-01-23T09:41:23;16.20;92.70
63875;DHT22;51595;24.180;-110.296;2023-01-23T09:49:12;16.20;92.60
63875;DHT22;51595;24.180;-110.296;2023-01-23T09:51:59;16.20;93.40
63875;DHT22;51595;24.180;-110.296;2023-01-23T09:54:32;16.20;93.50
63875;DHT22;51595;24.180;-110.296;2023-01-23T09:57:03;16.20;93.30
63875;DHT22;51595;24.180;-110.296;2023-01-23T09:59:39;16.10;93.10
63875;DHT22;51595;24.180;-110.296;2023-01-23T10:02:15;16.10;91.80
63875;DHT22;51595;24.180;-110.296;2023-01-23T10:04:49;16.10;91.60
63875;DHT22;51595;24.180;-110.296;2023-01-23T10:07:20;16.10;91.60
63875;DHT22;51595;24.180;-110.296;2023-01-23T10:12:56;16.20;91.60
63875;DHT22;51595;24.180;-110.296;2023-01-23T10:18:23;16.10;91.80
63875;DHT22;51595;24.180;-110.296;2023-01-23T10:26:13;16.10;92.10
63875;DHT22;51595;24.180;-110.296;2023-01-23T10:28:41;16.10;92.00
63875;DHT22;51595;24.180;-110.296;2023-01-23T10:36:57;16.10;92.70
63875;DHT22;51595;24.180;-110.296;2023-01-23T10:39:51;16.10;93.20
63875;DHT22;51595;24.180;-110.296;2023-01-23T10:42:22;16.10;93.60
63875;DHT22;51595;24.180;-110.296;2023-01-23T10:44:49;16.10;93.90
63875;DHT22;51595;24.180;-110.296;2023-01-23T10:48:01;16.10;94.10
63875;DHT22;51595;24.180;-110.296;2023-01-23T10:50:09;16.10;94.20
63875;DHT22;51595;24.180;-110.296;2023-01-23T10:52:41;16.10;94.40
63875;DHT22;51595;24.180;-110.296;2023-01-23T10:55:25;16.00;94.50
63875;DHT22;51595;24.180;-110.296;2023-01-23T10:57:56;16.00;94.90
63875;DHT22;51595;24.180;-110.296;2023-01-23T11:02:53;15.90;95.40
63875;DHT22;51595;24.180;-110.296;2023-01-23T11:05:40;15.90;95.50
63875;DHT22;51595;24.180;-110.296;2023-01-23T11:08:25;15.90;95.70
63875;DHT22;51595;24.180;-110.296;2023-01-23T11:10:53;15.90;96.20
63875;DHT22;51595;24.180;-110.296;2023-01-23T11:13:27;15.90;96.60
63875;DHT22;51595;24.180;-110.296;2023-01-23T11:15:55;15.90;96.80
63875;DHT22;51595;24.180;-110.296;2023-01-23T11:18:41;15.90;97.50
63875;DHT22;51595;24.180;-110.296;2023-01-23T11:21:26;15.90;97.90
63875;DHT22;51595;24.180;-110.296;2023-01-23T11:26:40;15.90;98.60
63875;DHT22;51595;24.180;-110.296;2023-01-23T11:29:27;15.80;99.10
63875;DHT22;51595;24.180;-110.296;2023-01-23T11:32:07;15.80;99.40
63875;DHT22;51595;24.180;-110.296;2023-01-23T11:37:58;15.70;99.90
63875;DHT22;51595;24.180;-110.296;2023-01-23T11:40:26;15.70;99.90
63875;DHT22;51595;24.180;-110.296;2023-01-23T11:42:53;15.70;99.90
63875;DHT22;51595;24.180;-110.296;2023-01-23T11:51:02;15.50;99.90
63875;DHT22;51595;24.180;-110.296;2023-01-23T11:53:49;15.50;99.90
63875;DHT22;51595;24.180;-110.296;2023-01-23T12:02:21;15.40;99.90
63875;DHT22;51595;24.180;-110.296;2023-01-23T12:08:02;15.40;99.90
63875;DHT22;51595;24.180;-110.296;2023-01-23T12:21:19;15.20;99.90
63875;DHT22;51595;24.180;-110.296;2023-01-23T12:23:57;15.10;99.90
63875;DHT22;51595;24.180;-110.296;2023-01-23T12:26:26;15.10;99.90
63875;DHT22;51595;24.180;-110.296;2023-01-23T12:29:22;15.10;99.90
63875;DHT22;51595;24.180;-110.296;2023-01-23T12:42:17;15.20;99.90
63875;DHT22;51595;24.180;-110.296;2023-01-23T12:44:59;15.10;99.90
63875;DHT22;51595;24.180;-110.296;2023-01-23T12:47:43;15.10;99.90
63875;DHT22;51595;24.180;-110.296;2023-01-23T12:50:18;15.10;99.90
63875;DHT22;51595;24.180;-110.296;2023-01-23T12:52:59;15.10;99.90
63875;DHT22;51595;24.180;-110.296;2023-01-23T12:55:46;15.10;99.90
63875;DHT22;51595;24.180;-110.296;2023-01-23T12:58:18;15.10;99.90
63875;DHT22;51595;24.180;-110.296;2023-01-23T13:00:48;15.10;99.90
63875;DHT22;51595;24.180;-110.296;2023-01-23T13:03:33;15.10;99.90
63875;DHT22;51595;24.180;-110.296;2023-01-23T13:12:16;14.80;99.90
63875;DHT22;51595;24.180;-110.296;2023-01-23T13:14:50;14.90;99.90
63875;DHT22;51595;24.180;-110.296;2023-01-23T13:23:29;14.60;99.90
63875;DHT22;51595;24.180;-110.296;2023-01-23T13:31:26;14.50;99.90
63875;DHT22;51595;24.180;-110.296;2023-01-23T13:33:53;14.40;99.90
63875;DHT22;51595;24.180;-110.296;2023-01-23T13:36:31;14.50;99.90
63875;DHT22;51595;24.180;-110.296;2023-01-23T13:39:25;14.40;99.90
63875;DHT22;51595;24.180;-110.296;2023-01-23T13:48:14;14.30;99.90
63875;DHT22;51595;24.180;-110.296;2023-01-23T13:51:15;14.30;99.90
63875;DHT22;51595;24.180;-110.296;2023-01-23T13:53:47;14.30;99.90
63875;DHT22;51595;24.180;-110.296;2023-01-23T13:56:34;14.40;99.90
63875;DHT22;51595;24.180;-110.296;2023-01-23T13:59:44;14.40;99.90
63875;DHT22;51595;24.180;-110.296;2023-01-23T14:02:35;14.40;99.90
63875;DHT22;51595;24.180;-110.296;2023-01-23T14:05:27;14.40;99.90
63875;DHT22;51595;24.180;-110.296;2023-01-23T14:08:06;14.40;99.90
63875;DHT22;51595;24.180;-110.296;2023-01-23T14:10:44;14.50;99.90
63875;DHT22;51595;24.180;-110.296;2023-01-23T14:13:15;14.50;99.90
63875;DHT22;51595;24.180;-110.296;2023-01-23T14:15:51;14.60;99.90
63875;DHT22;51595;24.180;-110.296;2023-01-23T14:18:45;14.60;99.90
63875;DHT22;51595;24.180;-110.296;2023-01-23T14:21:28;14.60;99.90
63875;DHT22;51595;24.180;-110.296;2023-01-23T14:23:57;14.60;99.90
63875;DHT22;51595;24.180;-110.296;2023-01-23T14:26:33;14.70;99.90
63875;DHT22;51595;24.180;-110.296;2023-01-23T14:29:18;14.80;99.90
63875;DHT22;51595;24.180;-110.296;2023-01-23T14:34:15;15.00;99.90
63875;DHT22;51595;24.180;-110.296;2023-01-23T14:36:44;15.10;99.90
63875;DHT22;51595;24.180;-110.296;2023-01-23T14:39:20;15.30;99.90
63875;DHT22;51595;24.180;-110.296;2023-01-23T14:41:47;15.20;99.90
63875;DHT22;51595;24.180;-110.296;2023-01-23T14:44:44;15.30;99.90
63875;DHT22;51595;24.180;-110.296;2023-01-23T14:47:17;15.50;99.90
63875;DHT22;51595;24.180;-110.296;2023-01-23T14:49:46;15.50;99.90
63875;DHT22;51595;24.180;-110.296;2023-01-23T14:52:25;15.70;99.90
63875;DHT22;51595;24.180;-110.296;2023-01-23T14:54:54;15.90;99.90
63875;DHT22;51595;24.180;-110.296;2023-01-23T14:57:22;16.10;99.90
63875;DHT22;51595;24.180;-110.296;2023-01-23T14:59:53;16.20;99.90
63875;DHT22;51595;24.180;-110.296;2023-01-23T15:10:56;16.50;99.90
63875;DHT22;51595;24.180;-110.296;2023-01-23T15:13:07;16.50;99.90
63875;DHT22;51595;24.180;-110.296;2023-01-23T15:15:35;16.30;99.90
63875;DHT22;51595;24.180;-110.296;2023-01-23T15:18:04;16.40;99.90
63875;DHT22;51595;24.180;-110.296;2023-01-23T15:20:34;16.40;99.90
63875;DHT22;51595;24.180;-110.296;2023-01-23T15:25:48;16.70;99.90
63875;DHT22;51595;24.180;-110.296;2023-01-23T15:28:37;16.60;99.90
63875;DHT22;51595;24.180;-110.296;2023-01-23T15:31:04;16.30;99.90
63875;DHT22;51595;24.180;-110.296;2023-01-23T15:33:32;16.40;99.90
63875;DHT22;51595;24.180;-110.296;2023-01-23T15:36:06;16.70;99.90
63875;DHT22;51595;24.180;-110.296;2023-01-23T15:38:33;17.00;99.90
63875;DHT22;51595;24.180;-110.296;2023-01-23T15:41:07;17.30;99.90
63875;DHT22;51595;24.180;-110.296;2023-01-23T15:43:35;17.30;99.90
63875;DHT22;51595;24.180;-110.296;2023-01-23T15:46:01;17.00;99.90
63875;DHT22;51595;24.180;-110.296;2023-01-23T15:48:27;16.50;99.90
63875;DHT22;51595;24.180;-110.296;2023-01-23T15:50:54;16.40;99.90
63875;DHT22;51595;24.180;-110.296;2023-01-23T15:53:21;16.50;99.90
63875;DHT22;51595;24.180;-110.296;2023-01-23T15:55:47;16.60;99.90
63875;DHT22;51595;24.180;-110.296;2023-01-23T15:58:14;16.90;99.90
63875;DHT22;51595;24.180;-110.296;2023-01-23T16:00:41;17.00;99.90
63875;DHT22;51595;24.180;-110.296;2023-01-23T16:03:07;17.20;99.90
63875;DHT22;51595;24.180;-110.296;2023-01-23T16:05:35;17.00;99.90
63875;DHT22;51595;24.180;-110.296;2023-01-23T16:08:04;16.40;99.90
63875;DHT22;51595;24.180;-110.296;2023-01-23T16:10:37;16.50;99.90
63875;DHT22;51595;24.180;-110.296;2023-01-23T16:13:05;17.00;99.90
63875;DHT22;51595;24.180;-110.296;2023-01-23T16:15:34;17.10;99.90
63875;DHT22;51595;24.180;-110.296;2023-01-23T16:18:01;17.60;99.90
63875;DHT22;51595;24.180;-110.296;2023-01-23T16:20:33;17.60;99.90
63875;DHT22;51595;24.180;-110.296;2023-01-23T16:23:25;17.60;99.90
63875;DHT22;51595;24.180;-110.296;2023-01-23T16:25:51;17.80;99.90
63875;DHT22;51595;24.180;-110.296;2023-01-23T16:28:23;18.10;99.90
63875;DHT22;51595;24.180;-110.296;2023-01-23T16:30:51;17.90;99.90
63875;DHT22;51595;24.180;-110.296;2023-01-23T16:33:19;17.70;99.90
63875;DHT22;51595;24.180;-110.296;2023-01-23T16:35:46;17.70;99.90
63875;DHT22;51595;24.180;-110.296;2023-01-23T16:38:23;17.70;99.90
63875;DHT22;51595;24.180;-110.296;2023-01-23T16:40:50;17.50;99.90
63875;DHT22;51595;24.180;-110.296;2023-01-23T16:43:18;17.50;99.90
63875;DHT22;51595;24.180;-110.296;2023-01-23T16:45:45;17.60;99.90
63875;DHT22;51595;24.180;-110.296;2023-01-23T16:48:11;18.30;99.90
63875;DHT22;51595;24.180;-110.296;2023-01-23T16:50:41;18.10;99.90
63875;DHT22;51595;24.180;-110.296;2023-01-23T16:53:26;18.30;99.90
63875;DHT22;51595;24.180;-110.296;2023-01-23T16:55:54;18.40;99.90